Airfield :







YOU CAN JOIN US ON...

 
LOGIN :

Register | Disclaimer

   EN    FR    IT 

 









Legend :    VFR   Marginal VFR   IFR   Intensive IFR   Very Intensive IFR
Visi :
Ceiling :
>= 8 km
>= 3000ft
5 to 8 km
1000 to 3000 ft
1500m to 5 km
500 to 1000 ft
800 to 1500m
200 to 500 ft
< 800m
< 200 ft
Symbols :   Thunderstorms  Fog  Heavy snow  Heavy precipitations  Wind > 20 kt






- Airport Elevation : 235 ft
- IATA code : CCS


SVMI - Simon Bolivar

CURRENT METAR :
  • 090803Z AUTO 08003KT NCD ///// Q1012

EXPIRED METARs :
  • 090800Z 09006KT 9999 SCT016 24/20 Q1013
  • 090703Z AUTO 08003KT NCD ///// Q1012
  • 090700Z 00000KT 9999 SCT016 24/20 Q1014
  • 090603Z AUTO 05003KT NCD ///// Q1013
  • 090600Z 00000KT 9999 SCT016 25/20 Q1014

TAF TAF SVMI
Valid from the 09 at 06:00 until the 10 at 06:00 UTC


090400Z 0906/1006 00000KT 9999 SCT016 TX32/1018Z TN21/1007Z
TEMPO 0908/0910 00000KT 9999 SCT016
SVZM FIR / South America



MET'MAP, your aeronautical weather chart ! - Copyright ORBIFLY December 2007 - Disclaimer

ORBIFLY MET'MAP TEAM :

Programming & Development : Alexandra Zaïnal
Original concept : Baudouin d'Aumeries
Technical & hardware support : Manuel Goepfert
Assistance : Marc-Olivier Méhu




SOURCES & CREDITS :

   NOAA